Terminal Aerodrome Forecast
Issued by NWS Corpus Christi, TX

Home | Current Version | Previous Version | Text Only | Print | Product List | Glossary On
Versions: 1 2 3 4 5 6 7 8 9 10 11 12 13 14 15 16
000
FTUS44 KCRP 211125
TAFCRP
TAF
KCRP 211125Z 2112/2212 VRB05KT P6SM OVC140
     FM211500 09012KT P6SM VCSH SCT025 BKN035 OVC070
      TEMPO 2116/2119 -TSRA BKN020CB OVC070
     FM211900 12017KT P6SM VCTS BKN040CB
     FM220300 13008KT P6SM BKN025
      TEMPO 2210/2212 5SM -SHRA BR BKN015 OVC150=

USA.gov is the U.S. government's official web portal to all federal, state and local government web resources and services.